sensor_id;sensor_type;location;lat;lon;timestamp;pressure;altitude;pressure_sealevel;temperature;humidity
75668;BME280;64266;48.798;44.756;2023-05-20T00:00:37;101720.63;;;15.88;47.25
75668;BME280;64266;48.798;44.756;2023-05-20T00:05:40;101741.81;;;15.90;47.89
75668;BME280;64266;48.798;44.756;2023-05-20T00:10:43;101743.19;;;15.81;49.27
75668;BME280;64266;48.798;44.756;2023-05-20T00:15:45;101731.84;;;15.67;48.95
75668;BME280;64266;48.798;44.756;2023-05-20T00:20:49;101725.88;;;15.53;49.80
75668;BME280;64266;48.798;44.756;2023-05-20T00:25:52;101725.31;;;15.63;49.16
75668;BME280;64266;48.798;44.756;2023-05-20T00:30:56;101723.72;;;15.62;49.49
75668;BME280;64266;48.798;44.756;2023-05-20T00:35:58;101714.81;;;15.50;49.23
75668;BME280;64266;48.798;44.756;2023-05-20T00:41:01;101703.94;;;15.45;49.22
75668;BME280;64266;48.798;44.756;2023-05-20T00:46:04;101709.91;;;15.47;50.16
75668;BME280;64266;48.798;44.756;2023-05-20T00:51:08;101723.09;;;15.42;50.56
75668;BME280;64266;48.798;44.756;2023-05-20T00:56:12;101718.09;;;15.34;51.29
75668;BME280;64266;48.798;44.756;2023-05-20T01:01:17;101715.16;;;15.35;50.59
75668;BME280;64266;48.798;44.756;2023-05-20T01:06:19;101714.59;;;15.33;51.52
75668;BME280;64266;48.798;44.756;2023-05-20T01:11:36;101694.06;;;15.15;52.36
75668;BME280;64266;48.798;44.756;2023-05-20T01:16:41;101719.47;;;15.36;51.64
75668;BME280;64266;48.798;44.756;2023-05-20T01:21:45;101719.63;;;15.23;52.92
75668;BME280;64266;48.798;44.756;2023-05-20T01:26:50;101696.19;;;15.25;53.03
75668;BME280;64266;48.798;44.756;2023-05-20T01:31:53;101710.28;;;15.32;53.03
75668;BME280;64266;48.798;44.756;2023-05-20T01:36:58;101715.91;;;15.42;53.34
75668;BME280;64266;48.798;44.756;2023-05-20T01:42:02;101715.09;;;15.42;52.81
75668;BME280;64266;48.798;44.756;2023-05-20T01:47:06;101712.56;;;15.47;53.07
75668;BME280;64266;48.798;44.756;2023-05-20T01:52:09;101724.38;;;15.57;53.00
75668;BME280;64266;48.798;44.756;2023-05-20T01:57:11;101705.28;;;15.54;53.81
75668;BME280;64266;48.798;44.756;2023-05-20T02:02:14;101689.53;;;15.64;52.09
75668;BME280;64266;48.798;44.756;2023-05-20T02:07:18;101723.69;;;16.03;51.91
75668;BME280;64266;48.798;44.756;2023-05-20T02:12:21;101703.59;;;16.12;51.75
75668;BME280;64266;48.798;44.756;2023-05-20T02:17:25;101719.78;;;16.29;51.83
75668;BME280;64266;48.798;44.756;2023-05-20T02:22:48;101719.31;;;16.20;52.85
75668;BME280;64266;48.798;44.756;2023-05-20T02:27:51;101729.22;;;16.43;52.68
75668;BME280;64266;48.798;44.756;2023-05-20T02:32:54;101722.84;;;16.56;52.22
75668;BME280;64266;48.798;44.756;2023-05-20T02:37:57;101730.19;;;16.84;50.75
75668;BME280;64266;48.798;44.756;2023-05-20T02:43:01;101720.25;;;16.96;50.16
75668;BME280;64266;48.798;44.756;2023-05-20T02:48:04;101721.75;;;17.15;49.01
75668;BME280;64266;48.798;44.756;2023-05-20T02:53:07;101716.22;;;17.33;48.31
75668;BME280;64266;48.798;44.756;2023-05-20T02:58:11;101721.59;;;18.06;46.82
75668;BME280;64266;48.798;44.756;2023-05-20T03:03:14;101726.88;;;19.28;44.89
75668;BME280;64266;48.798;44.756;2023-05-20T03:08:20;101712.34;;;20.78;41.43
75668;BME280;64266;48.798;44.756;2023-05-20T03:13:24;101710.59;;;22.11;39.37
75668;BME280;64266;48.798;44.756;2023-05-20T03:18:27;101713.25;;;23.41;36.78
75668;BME280;64266;48.798;44.756;2023-05-20T03:23:30;101724.59;;;24.49;35.31
75668;BME280;64266;48.798;44.756;2023-05-20T03:28:34;101726.16;;;25.69;32.30
75668;BME280;64266;48.798;44.756;2023-05-20T03:33:37;101727.22;;;26.37;31.77
75668;BME280;64266;48.798;44.756;2023-05-20T03:38:40;101721.38;;;27.04;30.68
75668;BME280;64266;48.798;44.756;2023-05-20T03:43:43;101701.50;;;27.75;29.42
75668;BME280;64266;48.798;44.756;2023-05-20T03:48:46;101718.34;;;28.43;28.16
75668;BME280;64266;48.798;44.756;2023-05-20T03:53:50;101699.88;;;28.80;26.93
75668;BME280;64266;48.798;44.756;2023-05-20T03:58:53;101713.38;;;29.33;26.83
75668;BME280;64266;48.798;44.756;2023-05-20T04:03:55;101725.13;;;29.76;26.19
75668;BME280;64266;48.798;44.756;2023-05-20T04:08:58;101723.63;;;30.22;26.18
75668;BME280;64266;48.798;44.756;2023-05-20T04:14:02;101725.31;;;30.60;26.84
75668;BME280;64266;48.798;44.756;2023-05-20T04:19:06;101724.50;;;30.98;25.75
75668;BME280;64266;48.798;44.756;2023-05-20T04:24:10;101729.00;;;31.23;25.60
75668;BME280;64266;48.798;44.756;2023-05-20T04:29:14;101717.19;;;31.73;23.87
75668;BME280;64266;48.798;44.756;2023-05-20T04:34:17;101741.06;;;31.93;23.67
75668;BME280;64266;48.798;44.756;2023-05-20T04:39:22;101732.00;;;32.13;24.06
75668;BME280;64266;48.798;44.756;2023-05-20T04:44:27;101746.38;;;32.55;22.98
75668;BME280;64266;48.798;44.756;2023-05-20T04:49:32;101746.22;;;32.84;23.31
75668;BME280;64266;48.798;44.756;2023-05-20T04:54:35;101763.84;;;33.19;23.00
75668;BME280;64266;48.798;44.756;2023-05-20T04:59:38;101755.00;;;33.38;22.53
75668;BME280;64266;48.798;44.756;2023-05-20T05:04:41;101745.75;;;33.70;21.97
75668;BME280;64266;48.798;44.756;2023-05-20T05:09:44;101753.75;;;34.03;22.49
75668;BME280;64266;48.798;44.756;2023-05-20T05:14:47;101742.47;;;34.20;21.67
75668;BME280;64266;48.798;44.756;2023-05-20T05:19:50;101756.22;;;34.64;21.12
75668;BME280;64266;48.798;44.756;2023-05-20T05:24:53;101747.47;;;34.77;20.81
75668;BME280;64266;48.798;44.756;2023-05-20T05:29:57;101750.47;;;35.04;20.71
75668;BME280;64266;48.798;44.756;2023-05-20T05:35:00;101764.06;;;34.97;19.59
75668;BME280;64266;48.798;44.756;2023-05-20T05:40:05;101752.44;;;34.88;19.46
75668;BME280;64266;48.798;44.756;2023-05-20T05:45:10;101759.59;;;35.08;19.75
75668;BME280;64266;48.798;44.756;2023-05-20T05:50:15;101747.53;;;35.12;19.63
75668;BME280;64266;48.798;44.756;2023-05-20T05:55:18;101753.94;;;35.01;19.34
75668;BME280;64266;48.798;44.756;2023-05-20T06:00:22;101749.69;;;34.88;18.76
75668;BME280;64266;48.798;44.756;2023-05-20T06:05:30;101755.53;;;35.02;19.64
75668;BME280;64266;48.798;44.756;2023-05-20T06:10:34;101756.25;;;34.99;20.26
75668;BME280;64266;48.798;44.756;2023-05-20T06:15:38;101759.72;;;34.80;19.97
75668;BME280;64266;48.798;44.756;2023-05-20T06:20:41;101738.47;;;35.12;19.55
75668;BME280;64266;48.798;44.756;2023-05-20T06:25:45;101762.69;;;35.57;19.36
75668;BME280;64266;48.798;44.756;2023-05-20T06:30:48;101759.78;;;35.50;18.70
75668;BME280;64266;48.798;44.756;2023-05-20T06:35:57;101756.44;;;35.41;18.79
75668;BME280;64266;48.798;44.756;2023-05-20T06:41:00;101764.09;;;34.65;19.15
75668;BME280;64266;48.798;44.756;2023-05-20T06:46:05;101755.50;;;34.67;19.36
75668;BME280;64266;48.798;44.756;2023-05-20T06:51:12;101732.63;;;34.66;19.24
75668;BME280;64266;48.798;44.756;2023-05-20T06:56:19;101723.56;;;34.81;18.08
75668;BME280;64266;48.798;44.756;2023-05-20T07:01:24;101723.66;;;35.20;17.06
75668;BME280;64266;48.798;44.756;2023-05-20T07:06:29;101705.38;;;34.96;17.32
75668;BME280;64266;48.798;44.756;2023-05-20T07:11:33;101744.69;;;34.93;17.82
75668;BME280;64266;48.798;44.756;2023-05-20T07:16:36;101719.56;;;34.79;16.77
75668;BME280;64266;48.798;44.756;2023-05-20T07:21:39;101723.09;;;34.48;17.48
75668;BME280;64266;48.798;44.756;2023-05-20T07:27:02;101746.00;;;34.21;18.88
75668;BME280;64266;48.798;44.756;2023-05-20T07:32:07;101735.72;;;34.06;18.02
75668;BME280;64266;48.798;44.756;2023-05-20T07:37:11;101725.38;;;33.71;17.29
75668;BME280;64266;48.798;44.756;2023-05-20T07:42:16;101732.09;;;33.34;17.10
75668;BME280;64266;48.798;44.756;2023-05-20T07:47:22;101705.44;;;33.10;17.14
75668;BME280;64266;48.798;44.756;2023-05-20T07:52:25;101706.25;;;32.87;16.71
75668;BME280;64266;48.798;44.756;2023-05-20T07:57:28;101715.59;;;32.49;17.40
75668;BME280;64266;48.798;44.756;2023-05-20T08:02:33;101728.38;;;32.00;17.87
75668;BME280;64266;48.798;44.756;2023-05-20T08:07:37;101722.53;;;31.48;18.65
75668;BME280;64266;48.798;44.756;2023-05-20T08:12:40;101705.00;;;30.99;18.84
75668;BME280;64266;48.798;44.756;2023-05-20T08:17:44;101649.56;;;30.27;21.40
75668;BME280;64266;48.798;44.756;2023-05-20T08:22:48;101732.94;;;30.38;19.75
75668;BME280;64266;48.798;44.756;2023-05-20T08:27:51;101663.69;;;29.82;20.54
75668;BME280;64266;48.798;44.756;2023-05-20T08:32:55;101702.78;;;29.83;19.83
75668;BME280;64266;48.798;44.756;2023-05-20T08:38:01;101672.84;;;29.61;21.61
75668;BME280;64266;48.798;44.756;2023-05-20T08:43:04;101713.72;;;29.74;22.39
75668;BME280;64266;48.798;44.756;2023-05-20T08:48:08;101713.56;;;29.71;22.24
75668;BME280;64266;48.798;44.756;2023-05-20T08:53:11;101692.97;;;29.65;19.91
75668;BME280;64266;48.798;44.756;2023-05-20T08:58:15;101682.19;;;29.42;21.68
75668;BME280;64266;48.798;44.756;2023-05-20T09:03:20;101644.56;;;29.31;21.79
75668;BME280;64266;48.798;44.756;2023-05-20T09:08:24;101694.25;;;29.58;19.58
75668;BME280;64266;48.798;44.756;2023-05-20T09:13:30;101681.22;;;29.55;19.26
75668;BME280;64266;48.798;44.756;2023-05-20T09:18:39;101661.44;;;29.41;20.44
75668;BME280;64266;48.798;44.756;2023-05-20T09:23:46;101672.38;;;29.24;18.81
75668;BME280;64266;48.798;44.756;2023-05-20T09:28:50;101665.25;;;29.06;19.55
75668;BME280;64266;48.798;44.756;2023-05-20T09:33:54;101672.66;;;29.14;19.12
75668;BME280;64266;48.798;44.756;2023-05-20T09:39:00;101667.66;;;29.08;19.87
75668;BME280;64266;48.798;44.756;2023-05-20T09:44:07;101653.47;;;28.80;18.89
75668;BME280;64266;48.798;44.756;2023-05-20T09:49:10;101655.09;;;28.81;19.82
75668;BME280;64266;48.798;44.756;2023-05-20T09:54:18;101651.53;;;28.72;20.46
75668;BME280;64266;48.798;44.756;2023-05-20T09:59:22;101651.38;;;28.77;21.56
75668;BME280;64266;48.798;44.756;2023-05-20T10:04:27;101653.91;;;28.65;21.83
75668;BME280;64266;48.798;44.756;2023-05-20T10:19:57;101640.19;;;28.47;23.00
75668;BME280;64266;48.798;44.756;2023-05-20T10:25:06;101653.38;;;28.54;20.80
75668;BME280;64266;48.798;44.756;2023-05-20T10:30:15;101647.53;;;28.38;23.35
75668;BME280;64266;48.798;44.756;2023-05-20T10:35:21;101634.03;;;28.33;23.86
75668;BME280;64266;48.798;44.756;2023-05-20T10:40:24;101635.47;;;28.39;23.09
75668;BME280;64266;48.798;44.756;2023-05-20T10:45:28;101634.16;;;28.28;22.96
75668;BME280;64266;48.798;44.756;2023-05-20T10:50:35;101636.25;;;28.23;23.96
75668;BME280;64266;48.798;44.756;2023-05-20T10:55:45;101635.69;;;28.12;22.98
75668;BME280;64266;48.798;44.756;2023-05-20T11:00:53;101645.34;;;28.18;22.73
75668;BME280;64266;48.798;44.756;2023-05-20T11:05:56;101640.19;;;28.08;23.39
75668;BME280;64266;48.798;44.756;2023-05-20T11:11:00;101611.81;;;27.87;23.52
75668;BME280;64266;48.798;44.756;2023-05-20T11:16:03;101624.19;;;27.93;22.75
75668;BME280;64266;48.798;44.756;2023-05-20T11:21:06;101614.03;;;27.85;21.77
75668;BME280;64266;48.798;44.756;2023-05-20T11:26:09;101618.50;;;27.81;22.31
75668;BME280;64266;48.798;44.756;2023-05-20T11:31:12;101605.19;;;27.79;22.43
75668;BME280;64266;48.798;44.756;2023-05-20T11:36:16;101616.31;;;27.91;22.53
75668;BME280;64266;48.798;44.756;2023-05-20T11:41:30;101609.78;;;27.70;21.76
75668;BME280;64266;48.798;44.756;2023-05-20T11:46:40;101606.25;;;27.70;23.72
75668;BME280;64266;48.798;44.756;2023-05-20T11:51:45;101611.88;;;27.73;23.17
75668;BME280;64266;48.798;44.756;2023-05-20T11:56:49;101602.22;;;27.67;22.76
75668;BME280;64266;48.798;44.756;2023-05-20T12:01:51;101608.91;;;27.61;22.96
75668;BME280;64266;48.798;44.756;2023-05-20T12:06:54;101610.53;;;27.62;24.32
75668;BME280;64266;48.798;44.756;2023-05-20T12:11:57;101609.22;;;27.60;23.88
75668;BME280;64266;48.798;44.756;2023-05-20T12:17:00;101613.19;;;27.54;24.26
75668;BME280;64266;48.798;44.756;2023-05-20T12:22:02;101608.53;;;27.54;23.90
75668;BME280;64266;48.798;44.756;2023-05-20T12:27:05;101598.06;;;27.48;24.23
75668;BME280;64266;48.798;44.756;2023-05-20T12:32:08;101593.84;;;27.41;24.95
75668;BME280;64266;48.798;44.756;2023-05-20T12:37:11;101589.63;;;27.35;27.63
75668;BME280;64266;48.798;44.756;2023-05-20T12:42:14;101581.84;;;27.42;25.86
75668;BME280;64266;48.798;44.756;2023-05-20T12:47:19;101576.59;;;27.46;23.10
75668;BME280;64266;48.798;44.756;2023-05-20T12:52:24;101586.78;;;27.40;26.05
75668;BME280;64266;48.798;44.756;2023-05-20T12:57:26;101575.31;;;27.30;25.33
75668;BME280;64266;48.798;44.756;2023-05-20T13:02:29;101586.91;;;27.35;23.70
75668;BME280;64266;48.798;44.756;2023-05-20T13:07:32;101563.63;;;27.29;24.18
75668;BME280;64266;48.798;44.756;2023-05-20T13:12:35;101560.59;;;27.31;24.88
75668;BME280;64266;48.798;44.756;2023-05-20T13:17:40;101563.81;;;27.33;25.27
75668;BME280;64266;48.798;44.756;2023-05-20T13:22:47;101549.50;;;27.27;25.35
75668;BME280;64266;48.798;44.756;2023-05-20T13:27:52;101556.69;;;27.23;24.81
75668;BME280;64266;48.798;44.756;2023-05-20T13:32:54;101553.91;;;27.15;23.35
75668;BME280;64266;48.798;44.756;2023-05-20T13:37:58;101545.91;;;27.18;23.90
75668;BME280;64266;48.798;44.756;2023-05-20T13:43:02;101544.69;;;27.24;24.88
75668;BME280;64266;48.798;44.756;2023-05-20T13:48:05;101542.94;;;27.06;23.66
75668;BME280;64266;48.798;44.756;2023-05-20T13:53:08;101517.19;;;26.90;25.50
75668;BME280;64266;48.798;44.756;2023-05-20T13:58:15;101523.06;;;26.83;26.04
75668;BME280;64266;48.798;44.756;2023-05-20T14:03:18;101524.94;;;26.47;37.64
75668;BME280;64266;48.798;44.756;2023-05-20T14:08:21;101526.16;;;26.14;28.89
75668;BME280;64266;48.798;44.756;2023-05-20T14:13:25;101510.03;;;26.04;29.65
75668;BME280;64266;48.798;44.756;2023-05-20T14:18:27;101501.97;;;25.99;26.90
75668;BME280;64266;48.798;44.756;2023-05-20T14:23:30;101504.38;;;26.00;26.03
75668;BME280;64266;48.798;44.756;2023-05-20T14:28:35;101495.53;;;25.95;26.28
75668;BME280;64266;48.798;44.756;2023-05-20T14:33:38;101489.88;;;25.91;25.80
75668;BME280;64266;48.798;44.756;2023-05-20T14:38:42;101486.19;;;25.87;26.84
75668;BME280;64266;48.798;44.756;2023-05-20T14:43:44;101486.84;;;25.79;27.10
75668;BME280;64266;48.798;44.756;2023-05-20T14:48:47;101500.75;;;25.91;27.08
75668;BME280;64266;48.798;44.756;2023-05-20T14:53:50;101507.91;;;25.87;27.10
75668;BME280;64266;48.798;44.756;2023-05-20T14:58:53;101503.06;;;25.70;27.52
75668;BME280;64266;48.798;44.756;2023-05-20T15:03:56;101518.38;;;25.80;26.74
75668;BME280;64266;48.798;44.756;2023-05-20T15:08:58;101466.06;;;25.42;27.74
75668;BME280;64266;48.798;44.756;2023-05-20T15:14:02;101503.44;;;25.64;27.74
75668;BME280;64266;48.798;44.756;2023-05-20T15:19:04;101514.63;;;25.62;27.12
75668;BME280;64266;48.798;44.756;2023-05-20T15:24:08;101519.63;;;25.55;27.05
75668;BME280;64266;48.798;44.756;2023-05-20T15:29:11;101520.03;;;25.49;27.76
75668;BME280;64266;48.798;44.756;2023-05-20T15:34:14;101533.28;;;25.50;27.64
75668;BME280;64266;48.798;44.756;2023-05-20T15:39:18;101534.88;;;25.38;27.83
75668;BME280;64266;48.798;44.756;2023-05-20T15:44:21;101522.25;;;25.28;28.08
75668;BME280;64266;48.798;44.756;2023-05-20T15:49:24;101539.41;;;25.23;28.11
75668;BME280;64266;48.798;44.756;2023-05-20T15:54:27;101520.16;;;25.06;27.93
75668;BME280;64266;48.798;44.756;2023-05-20T15:59:30;101565.69;;;25.28;27.79
75668;BME280;64266;48.798;44.756;2023-05-20T16:04:32;101551.03;;;25.10;28.30
75668;BME280;64266;48.798;44.756;2023-05-20T16:09:36;101566.44;;;25.15;28.38
75668;BME280;64266;48.798;44.756;2023-05-20T16:14:38;101574.72;;;25.05;29.18
75668;BME280;64266;48.798;44.756;2023-05-20T16:19:41;101581.06;;;25.00;28.60
75668;BME280;64266;48.798;44.756;2023-05-20T16:24:44;101578.47;;;24.90;28.76
75668;BME280;64266;48.798;44.756;2023-05-20T16:29:48;101568.63;;;24.75;28.69
75668;BME280;64266;48.798;44.756;2023-05-20T16:34:51;101571.91;;;24.72;29.09
75668;BME280;64266;48.798;44.756;2023-05-20T16:39:55;101536.75;;;24.44;28.99
75668;BME280;64266;48.798;44.756;2023-05-20T16:44:59;101569.69;;;24.56;29.20
75668;BME280;64266;48.798;44.756;2023-05-20T16:50:02;101569.28;;;24.44;29.81
75668;BME280;64266;48.798;44.756;2023-05-20T16:55:05;101556.25;;;24.22;29.56
75668;BME280;64266;48.798;44.756;2023-05-20T17:00:10;101584.19;;;24.22;29.78
75668;BME280;64266;48.798;44.756;2023-05-20T17:05:14;101566.72;;;24.05;29.64
75668;BME280;64266;48.798;44.756;2023-05-20T17:10:17;101567.16;;;23.88;29.19
75668;BME280;64266;48.798;44.756;2023-05-20T17:15:21;101595.00;;;23.94;28.92
75668;BME280;64266;48.798;44.756;2023-05-20T17:20:25;101590.84;;;23.78;29.03
75668;BME280;64266;48.798;44.756;2023-05-20T17:25:28;101596.59;;;23.71;28.93
75668;BME280;64266;48.798;44.756;2023-05-20T17:30:32;101604.78;;;23.61;28.76
75668;BME280;64266;48.798;44.756;2023-05-20T17:35:34;101598.75;;;23.40;30.06
75668;BME280;64266;48.798;44.756;2023-05-20T17:40:39;101626.66;;;23.31;30.14
75668;BME280;64266;48.798;44.756;2023-05-20T17:45:41;101604.28;;;23.15;30.26
75668;BME280;64266;48.798;44.756;2023-05-20T17:50:44;101625.97;;;23.05;30.68
75668;BME280;64266;48.798;44.756;2023-05-20T17:55:47;101623.09;;;22.91;30.89
75668;BME280;64266;48.798;44.756;2023-05-20T18:00:51;101628.00;;;22.84;30.93
75668;BME280;64266;48.798;44.756;2023-05-20T18:05:54;101617.75;;;22.71;30.10
75668;BME280;64266;48.798;44.756;2023-05-20T18:10:58;101630.75;;;22.64;30.17
75668;BME280;64266;48.798;44.756;2023-05-20T18:16:01;101615.13;;;22.51;30.13
75668;BME280;64266;48.798;44.756;2023-05-20T18:21:04;101614.63;;;22.34;29.90
75668;BME280;64266;48.798;44.756;2023-05-20T18:26:09;101618.97;;;22.30;30.28
75668;BME280;64266;48.798;44.756;2023-05-20T18:31:12;101632.50;;;22.14;30.69
75668;BME280;64266;48.798;44.756;2023-05-20T18:36:14;101626.88;;;21.96;30.84
75668;BME280;64266;48.798;44.756;2023-05-20T18:41:17;101625.47;;;21.78;31.37
75668;BME280;64266;48.798;44.756;2023-05-20T18:46:20;101649.78;;;21.78;31.97
75668;BME280;64266;48.798;44.756;2023-05-20T18:51:24;101650.59;;;21.63;32.13
75668;BME280;64266;48.798;44.756;2023-05-20T18:56:28;101664.88;;;21.54;33.18
75668;BME280;64266;48.798;44.756;2023-05-20T19:01:31;101651.06;;;21.25;33.97
75668;BME280;64266;48.798;44.756;2023-05-20T19:06:35;101657.25;;;21.16;34.72
75668;BME280;64266;48.798;44.756;2023-05-20T19:11:39;101666.34;;;21.04;35.35
75668;BME280;64266;48.798;44.756;2023-05-20T19:16:42;101672.19;;;20.86;36.25
75668;BME280;64266;48.798;44.756;2023-05-20T19:21:44;101675.94;;;20.70;36.92
75668;BME280;64266;48.798;44.756;2023-05-20T19:26:47;101677.50;;;20.66;37.46
75668;BME280;64266;48.798;44.756;2023-05-20T19:31:50;101677.44;;;20.56;37.32
75668;BME280;64266;48.798;44.756;2023-05-20T19:36:53;101669.28;;;20.46;38.08
75668;BME280;64266;48.798;44.756;2023-05-20T19:41:58;101676.28;;;20.42;38.12
75668;BME280;64266;48.798;44.756;2023-05-20T19:47:01;101684.03;;;20.33;38.83
75668;BME280;64266;48.798;44.756;2023-05-20T19:52:04;101682.84;;;20.24;38.67
75668;BME280;64266;48.798;44.756;2023-05-20T19:57:07;101677.34;;;20.09;39.23
75668;BME280;64266;48.798;44.756;2023-05-20T20:02:11;101685.75;;;20.13;39.26
75668;BME280;64266;48.798;44.756;2023-05-20T20:07:14;101684.38;;;20.10;39.75
75668;BME280;64266;48.798;44.756;2023-05-20T20:12:17;101681.34;;;20.01;40.07
75668;BME280;64266;48.798;44.756;2023-05-20T20:17:20;101677.84;;;20.01;40.53
75668;BME280;64266;48.798;44.756;2023-05-20T20:22:24;101677.50;;;19.92;41.04
75668;BME280;64266;48.798;44.756;2023-05-20T20:27:27;101675.88;;;19.91;41.18
75668;BME280;64266;48.798;44.756;2023-05-20T20:32:30;101686.34;;;19.88;41.54
75668;BME280;64266;48.798;44.756;2023-05-20T20:37:33;101674.69;;;19.77;41.96
75668;BME280;64266;48.798;44.756;2023-05-20T20:42:38;101667.88;;;19.70;42.12
75668;BME280;64266;48.798;44.756;2023-05-20T20:47:46;101669.41;;;19.61;42.45
75668;BME280;64266;48.798;44.756;2023-05-20T20:52:52;101673.66;;;19.57;42.83
75668;BME280;64266;48.798;44.756;2023-05-20T20:57:56;101679.81;;;19.52;43.04
75668;BME280;64266;48.798;44.756;2023-05-20T21:02:59;101686.78;;;19.48;43.38
75668;BME280;64266;48.798;44.756;2023-05-20T21:08:02;101664.00;;;19.34;43.17
75668;BME280;64266;48.798;44.756;2023-05-20T21:13:05;101658.78;;;19.22;43.63
75668;BME280;64266;48.798;44.756;2023-05-20T21:18:08;101667.13;;;19.26;43.77
75668;BME280;64266;48.798;44.756;2023-05-20T21:23:11;101662.47;;;19.16;44.00
75668;BME280;64266;48.798;44.756;2023-05-20T21:28:14;101664.53;;;19.09;44.07
75668;BME280;64266;48.798;44.756;2023-05-20T21:33:17;101659.34;;;19.03;44.53
75668;BME280;64266;48.798;44.756;2023-05-20T21:38:19;101653.94;;;18.98;44.63
75668;BME280;64266;48.798;44.756;2023-05-20T21:43:22;101644.97;;;18.92;44.62
75668;BME280;64266;48.798;44.756;2023-05-20T21:48:24;101645.69;;;18.82;44.81
75668;BME280;64266;48.798;44.756;2023-05-20T21:53:27;101630.97;;;18.68;45.01
75668;BME280;64266;48.798;44.756;2023-05-20T21:58:30;101639.28;;;18.67;45.24
75668;BME280;64266;48.798;44.756;2023-05-20T22:03:32;101621.97;;;18.58;45.68
75668;BME280;64266;48.798;44.756;2023-05-20T22:08:37;101631.91;;;18.57;45.55
75668;BME280;64266;48.798;44.756;2023-05-20T22:13:43;101626.94;;;18.49;45.10
75668;BME280;64266;48.798;44.756;2023-05-20T22:18:46;101635.19;;;18.42;45.42
75668;BME280;64266;48.798;44.756;2023-05-20T22:23:49;101635.34;;;18.36;45.65
75668;BME280;64266;48.798;44.756;2023-05-20T22:28:52;101632.50;;;18.26;45.92
75668;BME280;64266;48.798;44.756;2023-05-20T22:33:55;101621.50;;;18.27;45.55
75668;BME280;64266;48.798;44.756;2023-05-20T22:38:59;101624.47;;;18.26;45.59
75668;BME280;64266;48.798;44.756;2023-05-20T22:44:03;101601.44;;;18.13;45.76
75668;BME280;64266;48.798;44.756;2023-05-20T22:49:05;101619.53;;;18.18;46.09
75668;BME280;64266;48.798;44.756;2023-05-20T22:54:08;101605.34;;;18.06;46.34
75668;BME280;64266;48.798;44.756;2023-05-20T22:59:11;101609.59;;;18.02;46.27
75668;BME280;64266;48.798;44.756;2023-05-20T23:04:13;101608.94;;;17.95;46.41
75668;BME280;64266;48.798;44.756;2023-05-20T23:09:17;101610.41;;;17.85;46.44
75668;BME280;64266;48.798;44.756;2023-05-20T23:14:19;101617.25;;;17.76;46.55
75668;BME280;64266;48.798;44.756;2023-05-20T23:19:22;101555.97;;;17.23;47.35
75668;BME280;64266;48.798;44.756;2023-05-20T23:24:26;101607.84;;;17.46;47.29
75668;BME280;64266;48.798;44.756;2023-05-20T23:29:30;101597.25;;;17.22;47.81
75668;BME280;64266;48.798;44.756;2023-05-20T23:34:33;101602.97;;;17.14;48.24
75668;BME280;64266;48.798;44.756;2023-05-20T23:39:37;101615.63;;;17.02;48.04
75668;BME280;64266;48.798;44.756;2023-05-20T23:44:40;101611.34;;;16.90;48.82
75668;BME280;64266;48.798;44.756;2023-05-20T23:49:43;101600.13;;;16.76;48.71
75668;BME280;64266;48.798;44.756;2023-05-20T23:54:51;101612.69;;;16.75;49.24
75668;BME280;64266;48.798;44.756;2023-05-20T23:59:54;101613.28;;;16.66;49.52
